Grand Ruby — 3EIU3 — position and weather

sailwx.info

Track history (hours):
 
Tides and Currents Weather Stations Pressure Air Temp Water Temp Dewpoint Dewpoint Depression Visibility Wind Speed Wind Dir Waves Ship Positions

Grand Ruby

Last reported at 2018-Apr-08 06:55 UTC. Time now 2018-Apr-23 23:24 UTC.
Position N 28°05' W 016°16'.
Warning: this ship's position is 15 days out of date.

Length 199 m; draft 9.7 m.

Type: Cargo ship. MMSI: 372399000.

Date/timePositionNaut miles runAvg speedWind from/ knotsBaromVisibWave heightAir tempDewpointWater temp
2018-Apr-08 06:55N 28°05' W 016°16'718.1
2018-Apr-08 06:30N 28°10' W 016°11'918.2
2018-Apr-08 06:00N 28°17' W 016°04'918.1
2018-Apr-08 05:30N 28°24' W 015°57'917.7
2018-Apr-08 05:00N 28°31' W 015°51'917.6
2018-Apr-08 04:30N 28°38' W 015°44'917.5
2018-Apr-08 04:00N 28°45' W 015°39'917.4
2018-Apr-08 03:30N 28°52' W 015°33'917.3
2018-Apr-08 03:00N 28°59' W 015°28'917.2
2018-Apr-08 02:28N 29°08' W 015°23'  
2018-Apr-04 13:27N 49°39' W 003°48'815.9
2018-Apr-04 12:57N 49°43' W 003°38'815.5
2018-Apr-04 12:28N 49°46' W 003°28'714.8
2018-Apr-04 12:00N 49°50' W 003°19'714.1
2018-Apr-04 11:30N 49°53' W 003°09'713.2
2018-Apr-04 11:00N 49°57' W 003°00'612.0
2018-Apr-04 10:30N 49°59' W 002°52'611.7
2018-Apr-04 10:00N 50°02' W 002°44'510.8
2018-Apr-04 09:30N 50°03' W 002°36'510.4
2018-Apr-04 08:59N 50°05' W 002°27'1312.1
2018-Apr-04 07:55N 50°08' W 002°08'614.2
2018-Apr-04 07:30N 50°10' W 001°59'815.5
2018-Apr-04 07:00N 50°12' W 001°48'817.0
2018-Apr-04 06:31N 50°14' W 001°35'918.1
2018-Apr-04 06:00N 50°17' W 001°21'1019.2
2018-Apr-04 05:30N 50°20' W 001°07'1020.0
2018-Apr-04 05:00N 50°23' W 000°52'1419.4
2018-Apr-04 04:16N 50°27' W 000°31'518.7
2018-Apr-04 04:00N 50°28' W 000°23'918.5
2018-Apr-04 03:30N 50°30' W 000°09'918.2
2018-Apr-04 03:00N 50°32' E 000°05'917.8
2018-Apr-04 02:30N 50°35' E 000°19'917.1
2018-Apr-04 02:00N 50°37' E 000°32'816.2
2018-Apr-04 01:30N 50°40' E 000°43'815.8
2018-Apr-04 01:00N 50°45' E 000°53'815.5
2018-Apr-04 00:30N 50°49' E 001°03'815.5
2018-Apr-04 00:00N 50°53' E 001°14'816.2
2018-Apr-03 23:30N 50°59' E 001°23'917.9
2018-Apr-03 23:00N 51°05' E 001°33'918.8
2018-Apr-03 22:30N 51°12' E 001°44'1019.5
2018-Apr-03 22:00N 51°20' E 001°51'918.9
2018-Apr-03 21:30N 51°29' E 001°58'918.6
2018-Apr-03 21:00N 51°36' E 002°08'918.0
2018-Apr-03 20:30N 51°42' E 002°19'817.3
2018-Apr-03 20:00N 51°48' E 002°28'9215.6
2018-Apr-03 14:07N 53°00' E 004°03'417.1
2018-Apr-03 13:54N 53°03' E 004°07'717.1
2018-Apr-03 13:30N 53°07' E 004°17'1017.2
2018-Apr-03 12:57N 53°14' E 004°28'1117.0
2018-Apr-03 12:18N 53°24' E 004°35'516.5
2018-Apr-03 11:59N 53°28' E 004°39'816.5
2018-Apr-03 11:30N 53°31' E 004°51'815.6
2018-Apr-03 11:00N 53°34' E 005°03'714.5
2018-Apr-03 10:30N 53°37' E 005°15'714.1
2018-Apr-03 10:00N 53°39' E 005°26'7314.8
2018-Apr-03 05:04N 53°58' E 007°26'716.2
2018-Apr-03 04:39N 53°59' E 007°37'214.5
2018-Apr-03 04:30N 53°58' E 007°40'814.3
2018-Apr-03 03:59N 53°53' E 007°49'612.5
2018-Apr-03 03:31N 53°52' E 007°58'816.9
2018-Apr-03 03:01N 53°47' E 008°10'917.6
2018-Apr-03 02:30N 53°41' E 008°21'713.8
2018-Apr-03 02:01N 53°36' E 008°30'3 6.3
2018-Apr-03 01:30N 53°34' E 008°33'0 0.8
2018-Apr-03 00:58N 53°34' E 008°33'0 0.9
2018-Apr-03 00:28N 53°35' E 008°33'0 0.0
2018-Apr-02 23:58N 53°35' E 008°33'0 0.0
2018-Apr-02 23:28N 53°35' E 008°33'0 0.0
2018-Apr-02 22:58N 53°35' E 008°33'0 0.0
2018-Apr-02 22:28N 53°35' E 008°33'0 0.0
2018-Apr-02 21:58N 53°35' E 008°33'0 0.0
2018-Apr-02 21:28N 53°35' E 008°33'0 0.0
2018-Apr-02 20:58N 53°35' E 008°33'0 0.0
2018-Apr-02 20:28N 53°35' E 008°33'0 0.0
2018-Apr-02 19:58N 53°35' E 008°33'0 0.0
2018-Apr-02 19:28N 53°35' E 008°33'0 0.0
2018-Apr-02 18:58N 53°35' E 008°33'0 0.0
2018-Apr-02 18:28N 53°35' E 008°33'0 0.0
2018-Apr-02 17:58N 53°35' E 008°33'0 0.0
2018-Apr-02 17:28N 53°35' E 008°33'0 0.0
2018-Apr-02 16:58N 53°35' E 008°33'0 0.0
2018-Apr-02 16:28N 53°35' E 008°33'0 0.0
2018-Apr-02 15:58N 53°35' E 008°33'0 0.0
2018-Apr-02 15:28N 53°35' E 008°33'0 0.0
2018-Apr-02 14:58N 53°35' E 008°33'0 0.0
2018-Apr-02 14:28N 53°35' E 008°33'0 0.0
2018-Apr-02 13:58N 53°35' E 008°33'0 0.0
2018-Apr-02 13:28N 53°35' E 008°33'0 0.0
2018-Apr-02 12:58N 53°35' E 008°33'0 0.0
2018-Apr-02 12:28N 53°35' E 008°33'0 0.0
2018-Apr-02 11:58N 53°35' E 008°33'0 0.0
2018-Apr-02 11:28N 53°35' E 008°33'0 0.0
2018-Apr-02 10:58N 53°35' E 008°33'0 0.0
2018-Apr-02 10:28N 53°35' E 008°33'0 0.0
2018-Apr-02 09:58N 53°35' E 008°33'0 0.0
2018-Apr-02 09:28N 53°35' E 008°33'0 0.0
2018-Apr-02 08:58N 53°35' E 008°33'0 0.0
2018-Apr-02 08:28N 53°35' E 008°33'0 0.0
2018-Apr-02 07:58N 53°35' E 008°33'0 0.0
2018-Apr-02 07:28N 53°35' E 008°33'0 0.0
2018-Apr-02 06:58N 53°35' E 008°33'0 0.0
2018-Apr-02 06:28N 53°35' E 008°33'0 0.0
2018-Apr-02 05:58N 53°35' E 008°33'0 0.0
2018-Apr-02 05:28N 53°35' E 008°33'0 0.0
2018-Apr-02 04:58N 53°35' E 008°33'0 0.0
2018-Apr-02 04:28N 53°35' E 008°33'0 0.0
2018-Apr-02 03:58N 53°35' E 008°33'0 0.0
2018-Apr-02 03:28N 53°35' E 008°33'0 0.0
2018-Apr-02 02:58N 53°35' E 008°33'0 0.0
2018-Apr-02 02:28N 53°35' E 008°33'0 0.0
2018-Apr-02 01:58N 53°35' E 008°33'0 0.0
2018-Apr-02 01:28N 53°35' E 008°33'0 0.0
2018-Apr-02 00:58N 53°35' E 008°33'0 0.0
2018-Apr-02 00:28N 53°35' E 008°33'0 0.0
2018-Apr-01 23:58N 53°35' E 008°33'0 0.0
2018-Apr-01 23:28N 53°35' E 008°33'0 0.0
2018-Apr-01 22:58N 53°35' E 008°33'0 0.0
2018-Apr-01 22:28N 53°35' E 008°33'0 0.0
2018-Apr-01 21:58N 53°35' E 008°33'0 0.0
2018-Apr-01 21:28N 53°35' E 008°33'0 0.0
2018-Apr-01 20:58N 53°35' E 008°33'0 0.0
2018-Apr-01 20:28N 53°35' E 008°33'0 0.0
2018-Apr-01 19:58N 53°35' E 008°33'0 0.0
2018-Apr-01 19:28N 53°35' E 008°33'0 0.0
2018-Apr-01 18:58N 53°35' E 008°33'0 0.0
2018-Apr-01 18:28N 53°35' E 008°33'0 0.0
2018-Apr-01 17:58N 53°35' E 008°33'1 1.6
2018-Apr-01 17:28N 53°35' E 008°33'1 1.6
2018-Apr-01 16:58N 53°35' E 008°33'0 0.0
2018-Apr-01 16:28N 53°35' E 008°33'0 0.0
2018-Apr-01 15:58N 53°35' E 008°33'0 0.0
2018-Apr-01 15:28N 53°35' E 008°33'0 0.0
2018-Apr-01 14:58N 53°35' E 008°33'0 0.0
2018-Apr-01 14:28N 53°35' E 008°33'0 0.0
2018-Apr-01 13:58N 53°35' E 008°33'0 0.0
2018-Apr-01 13:28N 53°35' E 008°33'0 0.0
2018-Apr-01 12:58N 53°35' E 008°33'0 0.0
2018-Apr-01 12:28N 53°35' E 008°33'0 0.0
2018-Apr-01 11:58N 53°35' E 008°33'0 0.0
2018-Apr-01 11:28N 53°35' E 008°33'0 0.0
2018-Apr-01 10:58N 53°35' E 008°33'0 0.0
2018-Apr-01 10:28N 53°35' E 008°33'0 0.0
2018-Apr-01 09:58N 53°35' E 008°33'0 0.0
2018-Apr-01 09:28N 53°35' E 008°33'0 0.0
2018-Apr-01 08:58N 53°35' E 008°33'0 0.0
2018-Apr-01 08:28N 53°35' E 008°33'0 0.0
2018-Apr-01 07:58N 53°35' E 008°33'0 0.0
2018-Apr-01 07:28N 53°35' E 008°33'0 0.0
2018-Apr-01 06:58N 53°35' E 008°33'0 0.0
2018-Apr-01 06:28N 53°35' E 008°33'0 0.0
2018-Apr-01 05:58N 53°35' E 008°33'0 0.0
2018-Apr-01 05:28N 53°35' E 008°33'0 0.0
2018-Apr-01 04:58N 53°35' E 008°33'0 0.0
2018-Apr-01 04:28N 53°35' E 008°33'0 0.0
2018-Apr-01 03:58N 53°35' E 008°33'0 0.0
2018-Apr-01 03:28N 53°35' E 008°33'0 0.0
2018-Apr-01 02:58N 53°35' E 008°33'0 0.0
2018-Apr-01 02:28N 53°35' E 008°33'0 0.0
2018-Apr-01 01:58N 53°35' E 008°33'0 0.0
2018-Apr-01 01:28N 53°35' E 008°33'0 0.0
2018-Apr-01 00:58N 53°35' E 008°33'0 0.0
2018-Apr-01 00:28N 53°35' E 008°33'0 0.0
2018-Mar-31 23:58N 53°35' E 008°33'0 0.0
2018-Mar-31 23:28N 53°35' E 008°33'0 0.0
2018-Mar-31 22:58N 53°35' E 008°33'0 0.0
2018-Mar-31 22:28N 53°35' E 008°33'0 0.0
2018-Mar-31 21:58N 53°35' E 008°33'0 0.0
2018-Mar-31 21:28N 53°35' E 008°33'0 0.0
2018-Mar-31 20:58N 53°35' E 008°33'0 0.0
2018-Mar-31 20:28N 53°35' E 008°33'0 0.0
2018-Mar-31 19:58N 53°35' E 008°33'0 0.0
2018-Mar-31 19:28N 53°35' E 008°33'0 0.0
2018-Mar-31 18:58N 53°35' E 008°33'0 0.0
2018-Mar-31 18:28N 53°35' E 008°33'0 1.0
2018-Mar-31 18:00N 53°34' E 008°33'0 0.0
2018-Mar-31 17:30N 53°34' E 008°33'1 1.4
2018-Mar-31 17:00N 53°35' E 008°32'5 9.2
2018-Mar-31 16:30N 53°38' E 008°27'713.4
2018-Mar-31 16:00N 53°43' E 008°18'713.9
2018-Mar-31 15:30N 53°47' E 008°09'713.1
2018-Mar-31 15:00N 53°51' E 008°01'612.5
2018-Mar-31 14:30N 53°52' E 007°50'714.9
2018-Mar-31 14:00N 53°54' E 007°38'815.3
2018-Mar-31 13:30N 53°53' E 007°25'7015.6
2018-Mar-31 09:03N 53°35' E 005°31'116.8
2018-Mar-31 09:00N 53°35' E 005°30'816.6
2018-Mar-31 08:30N 53°32' E 005°17'816.6
2018-Mar-31 08:00N 53°29' E 005°04'817.0
2018-Mar-31 07:30N 53°26' E 004°51'816.6
2018-Mar-31 07:00N 53°21' E 004°40'816.8
2018-Mar-31 06:30N 53°13' E 004°33'916.9
2018-Mar-31 06:00N 53°06' E 004°26'816.9
2018-Mar-31 05:30N 52°59' E 004°19'917.2
2018-Mar-31 05:00N 52°51' E 004°13'917.0
2018-Mar-31 04:30N 52°44' E 004°06'917.4
2018-Mar-31 04:00N 52°37' E 003°57'917.3
2018-Mar-31 03:30N 52°31' E 003°47'917.3
2018-Mar-31 03:00N 52°25' E 003°37'917.6
2018-Mar-31 02:31N 52°17' E 003°30'917.8
2018-Mar-31 02:00N 52°08' E 003°26'917.8
2018-Mar-31 01:30N 51°60' E 003°23'918.0
2018-Mar-31 01:00N 51°51' E 003°20'815.2
2018-Mar-31 00:28N 51°43' E 003°17'613.3
2018-Mar-31 00:00N 51°38' E 003°22'611.6
2018-Mar-30 23:30N 51°32' E 003°26'611.6
2018-Mar-30 23:01N 51°28' E 003°31'3 6.7
2018-Mar-30 22:30N 51°26' E 003°36'5 9.6
2018-Mar-30 22:00N 51°24' E 003°43'612.2
2018-Mar-30 21:31N 51°21' E 003°51'612.9
2018-Mar-30 21:00N 51°26' E 003°58'510.2
2018-Mar-30 20:31N 51°22' E 004°04'510.6
2018-Mar-30 20:00N 51°23' E 004°13'510.0
2018-Mar-30 19:30N 51°19' E 004°16'2 3.8
2018-Mar-30 18:59N 51°17' E 004°15'0 0.0
2018-Mar-30 18:29N 51°17' E 004°15'0 0.1
2018-Mar-30 18:00N 51°17' E 004°15'1 2.1
2018-Mar-30 17:31N 51°16' E 004°13'0 0.2
2018-Mar-30 17:00N 51°16' E 004°13'0 0.0
2018-Mar-30 16:30N 51°16' E 004°13'0 0.0
2018-Mar-30 16:00N 51°16' E 004°13'0 0.0
2018-Mar-30 15:30N 51°16' E 004°13'0 0.0
2018-Mar-30 14:57N 51°16' E 004°13'0 0.0
2018-Mar-30 14:30N 51°16' E 004°13'0 0.0
2018-Mar-30 14:00N 51°16' E 004°13'0 0.0
2018-Mar-30 13:30N 51°16' E 004°13'0 0.0
2018-Mar-30 13:00N 51°16' E 004°13'0 0.0
2018-Mar-30 12:30N 51°16' E 004°13'0 0.0
2018-Mar-30 12:00N 51°16' E 004°13'0 0.0
2018-Mar-30 11:30N 51°16' E 004°13'0 0.0
2018-Mar-30 11:00N 51°16' E 004°13'0 0.0
2018-Mar-30 10:30N 51°16' E 004°13'0 0.0
2018-Mar-30 10:00N 51°16' E 004°13'0 0.0
2018-Mar-30 09:30N 51°16' E 004°13'0 0.0
2018-Mar-30 09:01N 51°16' E 004°13'0 0.0
2018-Mar-30 08:31N 51°16' E 004°13'0 0.0
2018-Mar-30 08:01N 51°16' E 004°13'0 0.0
2018-Mar-30 07:31N 51°16' E 004°13'0 0.0
2018-Mar-30 07:01N 51°16' E 004°13'0 0.0
2018-Mar-30 06:30N 51°16' E 004°13'0 0.0
2018-Mar-30 06:00N 51°16' E 004°13'0 0.0
2018-Mar-30 05:30N 51°16' E 004°13'0 0.0
2018-Mar-30 05:01N 51°16' E 004°13'0 0.0
2018-Mar-30 04:31N 51°16' E 004°13'0 0.0
2018-Mar-30 04:01N 51°16' E 004°13'0 0.0
2018-Mar-30 03:30N 51°16' E 004°13'0 0.0
2018-Mar-30 03:01N 51°16' E 004°13'0 0.0
2018-Mar-30 02:31N 51°16' E 004°13'0 0.0
2018-Mar-30 02:01N 51°16' E 004°13'0 0.0
2018-Mar-30 01:30N 51°16' E 004°13'0 0.0
2018-Mar-30 01:00N 51°16' E 004°13'0 0.0
2018-Mar-30 00:31N 51°16' E 004°13'0 0.0
2018-Mar-30 00:01N 51°16' E 004°13'0 0.0
2018-Mar-29 23:30N 51°16' E 004°13'0 0.0
2018-Mar-29 23:00N 51°16' E 004°13'0 0.0
2018-Mar-29 22:31N 51°16' E 004°13'0 0.0
2018-Mar-29 22:00N 51°16' E 004°13'0 0.0
2018-Mar-29 21:31N 51°16' E 004°13'0 0.0
2018-Mar-29 21:01N 51°16' E 004°13'0 0.0
2018-Mar-29 20:31N 51°16' E 004°13'0 0.0
2018-Mar-29 20:00N 51°16' E 004°13'0 0.0
2018-Mar-29 19:31N 51°16' E 004°13'0 0.0
2018-Mar-29 19:01N 51°16' E 004°13'0 0.0
2018-Mar-29 18:31N 51°16' E 004°13'0 0.0
2018-Mar-29 18:01N 51°16' E 004°13'0 0.0
2018-Mar-29 17:31N 51°16' E 004°13'0 0.0
2018-Mar-29 17:01N 51°16' E 004°13'0 0.0
2018-Mar-29 16:30N 51°16' E 004°13'0 0.0
2018-Mar-29 16:00N 51°16' E 004°13'0 0.0
2018-Mar-29 15:30N 51°16' E 004°13'0 0.0
2018-Mar-29 15:00N 51°16' E 004°13'0 0.0
2018-Mar-29 14:30N 51°16' E 004°13'0 0.0
2018-Mar-29 14:01N 51°16' E 004°13'0 0.0
2018-Mar-29 13:30N 51°16' E 004°13'0 0.0
2018-Mar-29 13:00N 51°16' E 004°13'0 0.0
2018-Mar-29 12:31N 51°16' E 004°13'0 0.0
2018-Mar-29 12:01N 51°16' E 004°13'0 0.0
2018-Mar-29 11:30N 51°16' E 004°13'0 0.0
2018-Mar-29 11:01N 51°16' E 004°13'0 0.0
2018-Mar-29 10:30N 51°16' E 004°13'0 0.0
2018-Mar-29 10:01N 51°16' E 004°13'0 0.0
2018-Mar-29 09:30N 51°16' E 004°13'0 0.0
2018-Mar-29 09:00N 51°16' E 004°13'0 0.0
2018-Mar-29 08:30N 51°16' E 004°13'0 0.0
2018-Mar-29 08:01N 51°16' E 004°13'0 0.0
2018-Mar-29 07:31N 51°16' E 004°13'0 0.0
2018-Mar-29 07:01N 51°16' E 004°13'  
Track history (hours):
 
Tides and Currents Weather Stations Pressure Air Temp Water Temp Dewpoint Dewpoint Depression Visibility Wind Speed Wind Dir Waves Ship Positions

Grand Ruby

Last reported at 2018-Apr-08 06:55 UTC. Time now 2018-Apr-23 23:24 UTC.
Position N 28°05' W 016°16'.
Warning: this ship's position is 15 days out of date.

Length 199 m; draft 9.7 m.

Type: Cargo ship. MMSI: 372399000.

Date/timePositionNaut miles runAvg speedWind from/ knotsBaromVisibWave heightAir tempDewpointWater temp
2018-Apr-08 06:55N 28°05' W 016°16'718.1
2018-Apr-08 06:30N 28°10' W 016°11'918.2
2018-Apr-08 06:00N 28°17' W 016°04'918.1
2018-Apr-08 05:30N 28°24' W 015°57'917.7
2018-Apr-08 05:00N 28°31' W 015°51'917.6
2018-Apr-08 04:30N 28°38' W 015°44'917.5
2018-Apr-08 04:00N 28°45' W 015°39'917.4
2018-Apr-08 03:30N 28°52' W 015°33'917.3
2018-Apr-08 03:00N 28°59' W 015°28'917.2
2018-Apr-08 02:28N 29°08' W 015°23'  
2018-Apr-04 13:27N 49°39' W 003°48'815.9
2018-Apr-04 12:57N 49°43' W 003°38'815.5
2018-Apr-04 12:28N 49°46' W 003°28'714.8
2018-Apr-04 12:00N 49°50' W 003°19'714.1
2018-Apr-04 11:30N 49°53' W 003°09'713.2
2018-Apr-04 11:00N 49°57' W 003°00'612.0
2018-Apr-04 10:30N 49°59' W 002°52'611.7
2018-Apr-04 10:00N 50°02' W 002°44'510.8
2018-Apr-04 09:30N 50°03' W 002°36'510.4
2018-Apr-04 08:59N 50°05' W 002°27'1312.1
2018-Apr-04 07:55N 50°08' W 002°08'614.2
2018-Apr-04 07:30N 50°10' W 001°59'815.5
2018-Apr-04 07:00N 50°12' W 001°48'817.0
2018-Apr-04 06:31N 50°14' W 001°35'918.1
2018-Apr-04 06:00N 50°17' W 001°21'1019.2
2018-Apr-04 05:30N 50°20' W 001°07'1020.0
2018-Apr-04 05:00N 50°23' W 000°52'1419.4
2018-Apr-04 04:16N 50°27' W 000°31'518.7
2018-Apr-04 04:00N 50°28' W 000°23'918.5
2018-Apr-04 03:30N 50°30' W 000°09'918.2
2018-Apr-04 03:00N 50°32' E 000°05'917.8
2018-Apr-04 02:30N 50°35' E 000°19'917.1
2018-Apr-04 02:00N 50°37' E 000°32'816.2
2018-Apr-04 01:30N 50°40' E 000°43'815.8
2018-Apr-04 01:00N 50°45' E 000°53'815.5
2018-Apr-04 00:30N 50°49' E 001°03'815.5
2018-Apr-04 00:00N 50°53' E 001°14'816.2
2018-Apr-03 23:30N 50°59' E 001°23'917.9
2018-Apr-03 23:00N 51°05' E 001°33'918.8
2018-Apr-03 22:30N 51°12' E 001°44'1019.5
2018-Apr-03 22:00N 51°20' E 001°51'918.9
2018-Apr-03 21:30N 51°29' E 001°58'918.6
2018-Apr-03 21:00N 51°36' E 002°08'918.0
2018-Apr-03 20:30N 51°42' E 002°19'817.3
2018-Apr-03 20:00N 51°48' E 002°28'9215.6
2018-Apr-03 14:07N 53°00' E 004°03'417.1
2018-Apr-03 13:54N 53°03' E 004°07'717.1
2018-Apr-03 13:30N 53°07' E 004°17'1017.2
2018-Apr-03 12:57N 53°14' E 004°28'1117.0
2018-Apr-03 12:18N 53°24' E 004°35'516.5
2018-Apr-03 11:59N 53°28' E 004°39'816.5
2018-Apr-03 11:30N 53°31' E 004°51'815.6
2018-Apr-03 11:00N 53°34' E 005°03'714.5
2018-Apr-03 10:30N 53°37' E 005°15'714.1
2018-Apr-03 10:00N 53°39' E 005°26'7314.8
2018-Apr-03 05:04N 53°58' E 007°26'716.2
2018-Apr-03 04:39N 53°59' E 007°37'214.5
2018-Apr-03 04:30N 53°58' E 007°40'814.3
2018-Apr-03 03:59N 53°53' E 007°49'612.5
2018-Apr-03 03:31N 53°52' E 007°58'816.9
2018-Apr-03 03:01N 53°47' E 008°10'917.6
2018-Apr-03 02:30N 53°41' E 008°21'713.8
2018-Apr-03 02:01N 53°36' E 008°30'3 6.3
2018-Apr-03 01:30N 53°34' E 008°33'0 0.8
2018-Apr-03 00:58N 53°34' E 008°33'0 0.9
2018-Apr-03 00:28N 53°35' E 008°33'0 0.0
2018-Apr-02 23:58N 53°35' E 008°33'0 0.0
2018-Apr-02 23:28N 53°35' E 008°33'0 0.0
2018-Apr-02 22:58N 53°35' E 008°33'0 0.0
2018-Apr-02 22:28N 53°35' E 008°33'0 0.0
2018-Apr-02 21:58N 53°35' E 008°33'0 0.0
2018-Apr-02 21:28N 53°35' E 008°33'0 0.0
2018-Apr-02 20:58N 53°35' E 008°33'0 0.0
2018-Apr-02 20:28N 53°35' E 008°33'0 0.0
2018-Apr-02 19:58N 53°35' E 008°33'0 0.0
2018-Apr-02 19:28N 53°35' E 008°33'0 0.0
2018-Apr-02 18:58N 53°35' E 008°33'0 0.0
2018-Apr-02 18:28N 53°35' E 008°33'0 0.0
2018-Apr-02 17:58N 53°35' E 008°33'0 0.0
2018-Apr-02 17:28N 53°35' E 008°33'0 0.0
2018-Apr-02 16:58N 53°35' E 008°33'0 0.0
2018-Apr-02 16:28N 53°35' E 008°33'0 0.0
2018-Apr-02 15:58N 53°35' E 008°33'0 0.0
2018-Apr-02 15:28N 53°35' E 008°33'0 0.0
2018-Apr-02 14:58N 53°35' E 008°33'0 0.0
2018-Apr-02 14:28N 53°35' E 008°33'0 0.0
2018-Apr-02 13:58N 53°35' E 008°33'0 0.0
2018-Apr-02 13:28N 53°35' E 008°33'0 0.0
2018-Apr-02 12:58N 53°35' E 008°33'0 0.0
2018-Apr-02 12:28N 53°35' E 008°33'0 0.0
2018-Apr-02 11:58N 53°35' E 008°33'0 0.0
2018-Apr-02 11:28N 53°35' E 008°33'0 0.0
2018-Apr-02 10:58N 53°35' E 008°33'0 0.0
2018-Apr-02 10:28N 53°35' E 008°33'0 0.0
2018-Apr-02 09:58N 53°35' E 008°33'0 0.0
2018-Apr-02 09:28N 53°35' E 008°33'0 0.0
2018-Apr-02 08:58N 53°35' E 008°33'0 0.0
2018-Apr-02 08:28N 53°35' E 008°33'0 0.0
2018-Apr-02 07:58N 53°35' E 008°33'0 0.0
2018-Apr-02 07:28N 53°35' E 008°33'0 0.0
2018-Apr-02 06:58N 53°35' E 008°33'0 0.0
2018-Apr-02 06:28N 53°35' E 008°33'0 0.0
2018-Apr-02 05:58N 53°35' E 008°33'0 0.0
2018-Apr-02 05:28N 53°35' E 008°33'0 0.0
2018-Apr-02 04:58N 53°35' E 008°33'0 0.0
2018-Apr-02 04:28N 53°35' E 008°33'0 0.0
2018-Apr-02 03:58N 53°35' E 008°33'0 0.0
2018-Apr-02 03:28N 53°35' E 008°33'0 0.0
2018-Apr-02 02:58N 53°35' E 008°33'0 0.0
2018-Apr-02 02:28N 53°35' E 008°33'0 0.0
2018-Apr-02 01:58N 53°35' E 008°33'0 0.0
2018-Apr-02 01:28N 53°35' E 008°33'0 0.0
2018-Apr-02 00:58N 53°35' E 008°33'0 0.0
2018-Apr-02 00:28N 53°35' E 008°33'0 0.0
2018-Apr-01 23:58N 53°35' E 008°33'0 0.0
2018-Apr-01 23:28N 53°35' E 008°33'0 0.0
2018-Apr-01 22:58N 53°35' E 008°33'0 0.0
2018-Apr-01 22:28N 53°35' E 008°33'0 0.0
2018-Apr-01 21:58N 53°35' E 008°33'0 0.0
2018-Apr-01 21:28N 53°35' E 008°33'0 0.0
2018-Apr-01 20:58N 53°35' E 008°33'0 0.0
2018-Apr-01 20:28N 53°35' E 008°33'0 0.0
2018-Apr-01 19:58N 53°35' E 008°33'0 0.0
2018-Apr-01 19:28N 53°35' E 008°33'0 0.0
2018-Apr-01 18:58N 53°35' E 008°33'0 0.0
2018-Apr-01 18:28N 53°35' E 008°33'0 0.0
2018-Apr-01 17:58N 53°35' E 008°33'1 1.6
2018-Apr-01 17:28N 53°35' E 008°33'1 1.6
2018-Apr-01 16:58N 53°35' E 008°33'0 0.0
2018-Apr-01 16:28N 53°35' E 008°33'0 0.0
2018-Apr-01 15:58N 53°35' E 008°33'0 0.0
2018-Apr-01 15:28N 53°35' E 008°33'0 0.0
2018-Apr-01 14:58N 53°35' E 008°33'0 0.0
2018-Apr-01 14:28N 53°35' E 008°33'0 0.0
2018-Apr-01 13:58N 53°35' E 008°33'0 0.0
2018-Apr-01 13:28N 53°35' E 008°33'0 0.0
2018-Apr-01 12:58N 53°35' E 008°33'0 0.0
2018-Apr-01 12:28N 53°35' E 008°33'0 0.0
2018-Apr-01 11:58N 53°35' E 008°33'0 0.0
2018-Apr-01 11:28N 53°35' E 008°33'0 0.0
2018-Apr-01 10:58N 53°35' E 008°33'0 0.0
2018-Apr-01 10:28N 53°35' E 008°33'0 0.0
2018-Apr-01 09:58N 53°35' E 008°33'0 0.0
2018-Apr-01 09:28N 53°35' E 008°33'0 0.0
2018-Apr-01 08:58N 53°35' E 008°33'0 0.0
2018-Apr-01 08:28N 53°35' E 008°33'0 0.0
2018-Apr-01 07:58N 53°35' E 008°33'0 0.0
2018-Apr-01 07:28N 53°35' E 008°33'0 0.0
2018-Apr-01 06:58N 53°35' E 008°33'0 0.0
2018-Apr-01 06:28N 53°35' E 008°33'0 0.0
2018-Apr-01 05:58N 53°35' E 008°33'0 0.0
2018-Apr-01 05:28N 53°35' E 008°33'0 0.0
2018-Apr-01 04:58N 53°35' E 008°33'0 0.0
2018-Apr-01 04:28N 53°35' E 008°33'0 0.0
2018-Apr-01 03:58N 53°35' E 008°33'0 0.0
2018-Apr-01 03:28N 53°35' E 008°33'0 0.0
2018-Apr-01 02:58N 53°35' E 008°33'0 0.0
2018-Apr-01 02:28N 53°35' E 008°33'0 0.0
2018-Apr-01 01:58N 53°35' E 008°33'0 0.0
2018-Apr-01 01:28N 53°35' E 008°33'0 0.0
2018-Apr-01 00:58N 53°35' E 008°33'0 0.0
2018-Apr-01 00:28N 53°35' E 008°33'0 0.0
2018-Mar-31 23:58N 53°35' E 008°33'0 0.0
2018-Mar-31 23:28N 53°35' E 008°33'0 0.0
2018-Mar-31 22:58N 53°35' E 008°33'0 0.0
2018-Mar-31 22:28N 53°35' E 008°33'0 0.0
2018-Mar-31 21:58N 53°35' E 008°33'0 0.0
2018-Mar-31 21:28N 53°35' E 008°33'0 0.0
2018-Mar-31 20:58N 53°35' E 008°33'0 0.0
2018-Mar-31 20:28N 53°35' E 008°33'0 0.0
2018-Mar-31 19:58N 53°35' E 008°33'0 0.0
2018-Mar-31 19:28N 53°35' E 008°33'0 0.0
2018-Mar-31 18:58N 53°35' E 008°33'0 0.0
2018-Mar-31 18:28N 53°35' E 008°33'0 1.0
2018-Mar-31 18:00N 53°34' E 008°33'0 0.0
2018-Mar-31 17:30N 53°34' E 008°33'1 1.4
2018-Mar-31 17:00N 53°35' E 008°32'5 9.2
2018-Mar-31 16:30N 53°38' E 008°27'713.4
2018-Mar-31 16:00N 53°43' E 008°18'713.9
2018-Mar-31 15:30N 53°47' E 008°09'713.1
2018-Mar-31 15:00N 53°51' E 008°01'612.5
2018-Mar-31 14:30N 53°52' E 007°50'714.9
2018-Mar-31 14:00N 53°54' E 007°38'815.3
2018-Mar-31 13:30N 53°53' E 007°25'7015.6
2018-Mar-31 09:03N 53°35' E 005°31'116.8
2018-Mar-31 09:00N 53°35' E 005°30'816.6
2018-Mar-31 08:30N 53°32' E 005°17'816.6
2018-Mar-31 08:00N 53°29' E 005°04'817.0
2018-Mar-31 07:30N 53°26' E 004°51'816.6
2018-Mar-31 07:00N 53°21' E 004°40'816.8
2018-Mar-31 06:30N 53°13' E 004°33'916.9
2018-Mar-31 06:00N 53°06' E 004°26'816.9
2018-Mar-31 05:30N 52°59' E 004°19'917.2
2018-Mar-31 05:00N 52°51' E 004°13'917.0
2018-Mar-31 04:30N 52°44' E 004°06'917.4
2018-Mar-31 04:00N 52°37' E 003°57'917.3
2018-Mar-31 03:30N 52°31' E 003°47'917.3
2018-Mar-31 03:00N 52°25' E 003°37'917.6
2018-Mar-31 02:31N 52°17' E 003°30'917.8
2018-Mar-31 02:00N 52°08' E 003°26'917.8
2018-Mar-31 01:30N 51°60' E 003°23'918.0
2018-Mar-31 01:00N 51°51' E 003°20'815.2
2018-Mar-31 00:28N 51°43' E 003°17'613.3
2018-Mar-31 00:00N 51°38' E 003°22'611.6
2018-Mar-30 23:30N 51°32' E 003°26'611.6
2018-Mar-30 23:01N 51°28' E 003°31'3 6.7
2018-Mar-30 22:30N 51°26' E 003°36'5 9.6
2018-Mar-30 22:00N 51°24' E 003°43'612.2
2018-Mar-30 21:31N 51°21' E 003°51'612.9
2018-Mar-30 21:00N 51°26' E 003°58'510.2
2018-Mar-30 20:31N 51°22' E 004°04'510.6
2018-Mar-30 20:00N 51°23' E 004°13'510.0
2018-Mar-30 19:30N 51°19' E 004°16'2 3.8
2018-Mar-30 18:59N 51°17' E 004°15'0 0.0
2018-Mar-30 18:29N 51°17' E 004°15'0 0.1
2018-Mar-30 18:00N 51°17' E 004°15'1 2.1
2018-Mar-30 17:31N 51°16' E 004°13'0 0.2
2018-Mar-30 17:00N 51°16' E 004°13'0 0.0
2018-Mar-30 16:30N 51°16' E 004°13'0 0.0
2018-Mar-30 16:00N 51°16' E 004°13'0 0.0
2018-Mar-30 15:30N 51°16' E 004°13'0 0.0
2018-Mar-30 14:57N 51°16' E 004°13'0 0.0
2018-Mar-30 14:30N 51°16' E 004°13'0 0.0
2018-Mar-30 14:00N 51°16' E 004°13'0 0.0
2018-Mar-30 13:30N 51°16' E 004°13'0 0.0
2018-Mar-30 13:00N 51°16' E 004°13'0 0.0
2018-Mar-30 12:30N 51°16' E 004°13'0 0.0
2018-Mar-30 12:00N 51°16' E 004°13'0 0.0
2018-Mar-30 11:30N 51°16' E 004°13'0 0.0
2018-Mar-30 11:00N 51°16' E 004°13'0 0.0
2018-Mar-30 10:30N 51°16' E 004°13'0 0.0
2018-Mar-30 10:00N 51°16' E 004°13'0 0.0
2018-Mar-30 09:30N 51°16' E 004°13'0 0.0
2018-Mar-30 09:01N 51°16' E 004°13'0 0.0
2018-Mar-30 08:31N 51°16' E 004°13'0 0.0
2018-Mar-30 08:01N 51°16' E 004°13'0 0.0
2018-Mar-30 07:31N 51°16' E 004°13'0 0.0
2018-Mar-30 07:01N 51°16' E 004°13'0 0.0
2018-Mar-30 06:30N 51°16' E 004°13'0 0.0
2018-Mar-30 06:00N 51°16' E 004°13'0 0.0
2018-Mar-30 05:30N 51°16' E 004°13'0 0.0
2018-Mar-30 05:01N 51°16' E 004°13'0 0.0
2018-Mar-30 04:31N 51°16' E 004°13'0 0.0
2018-Mar-30 04:01N 51°16' E 004°13'0 0.0
2018-Mar-30 03:30N 51°16' E 004°13'0 0.0
2018-Mar-30 03:01N 51°16' E 004°13'0 0.0
2018-Mar-30 02:31N 51°16' E 004°13'0 0.0
2018-Mar-30 02:01N 51°16' E 004°13'0 0.0
2018-Mar-30 01:30N 51°16' E 004°13'0 0.0
2018-Mar-30 01:00N 51°16' E 004°13'0 0.0
2018-Mar-30 00:31N 51°16' E 004°13'0 0.0
2018-Mar-30 00:01N 51°16' E 004°13'0 0.0
2018-Mar-29 23:30N 51°16' E 004°13'0 0.0
2018-Mar-29 23:00N 51°16' E 004°13'0 0.0
2018-Mar-29 22:31N 51°16' E 004°13'0 0.0
2018-Mar-29 22:00N 51°16' E 004°13'0 0.0
2018-Mar-29 21:31N 51°16' E 004°13'0 0.0
2018-Mar-29 21:01N 51°16' E 004°13'0 0.0
2018-Mar-29 20:31N 51°16' E 004°13'0 0.0
2018-Mar-29 20:00N 51°16' E 004°13'0 0.0
2018-Mar-29 19:31N 51°16' E 004°13'0 0.0
2018-Mar-29 19:01N 51°16' E 004°13'0 0.0
2018-Mar-29 18:31N 51°16' E 004°13'0 0.0
2018-Mar-29 18:01N 51°16' E 004°13'0 0.0
2018-Mar-29 17:31N 51°16' E 004°13'0 0.0
2018-Mar-29 17:01N 51°16' E 004°13'0 0.0
2018-Mar-29 16:30N 51°16' E 004°13'0 0.0
2018-Mar-29 16:00N 51°16' E 004°13'0 0.0
2018-Mar-29 15:30N 51°16' E 004°13'0 0.0
2018-Mar-29 15:00N 51°16' E 004°13'0 0.0
2018-Mar-29 14:30N 51°16' E 004°13'0 0.0
2018-Mar-29 14:01N 51°16' E 004°13'0 0.0
2018-Mar-29 13:30N 51°16' E 004°13'0 0.0
2018-Mar-29 13:00N 51°16' E 004°13'0 0.0
2018-Mar-29 12:31N 51°16' E 004°13'0 0.0
2018-Mar-29 12:01N 51°16' E 004°13'0 0.0
2018-Mar-29 11:30N 51°16' E 004°13'0 0.0
2018-Mar-29 11:01N 51°16' E 004°13'0 0.0
2018-Mar-29 10:30N 51°16' E 004°13'0 0.0
2018-Mar-29 10:01N 51°16' E 004°13'0 0.0
2018-Mar-29 09:30N 51°16' E 004°13'0 0.0
2018-Mar-29 09:00N 51°16' E 004°13'0 0.0
2018-Mar-29 08:30N 51°16' E 004°13'0 0.0
2018-Mar-29 08:01N 51°16' E 004°13'0 0.0
2018-Mar-29 07:31N 51°16' E 004°13'0 0.0
2018-Mar-29 07:01N 51°16' E 004°13'  

Dump ship's entire track history